Time,TemperatureF,DewpointF,PressureIn,WindDirection,WindDirectionDegrees,WindSpeedMPH,WindSpeedGustMPH,Humidity,HourlyPrecipIn,Conditions,Clouds,dailyrainin,SoftwareType,DateUTC
2013-01-15 00:05:00,54.5,53.0,30.09,North,1,1.0,3.0,93,0.00,,,0.00,weatherlink.com 1.10,2013-01-15 05:05:00,
2013-01-15 00:20:00,54.6,53.0,30.08,NNE,27,0.0,2.0,94,0.00,,,0.00,weatherlink.com 1.10,2013-01-15 05:20:00,
2013-01-15 00:35:00,54.7,53.0,30.08,East,93,2.0,2.0,94,0.00,,,0.00,weatherlink.com 1.10,2013-01-15 05:35:00,
2013-01-15 00:50:00,54.7,53.0,30.08,East,95,0.0,1.0,94,0.02,,,0.02,weatherlink.com 1.10,2013-01-15 05:50:00,
2013-01-15 01:05:00,54.4,53.0,30.08,SE,125,0.0,1.0,95,0.03,,,0.03,weatherlink.com 1.10,2013-01-15 06:05:00,
2013-01-15 01:20:00,54.5,53.0,30.08,ESE,115,0.0,1.0,96,0.04,,,0.04,weatherlink.com 1.10,2013-01-15 06:20:00,
2013-01-15 01:35:00,54.7,54.0,30.08,ESE,114,0.0,0.0,96,0.05,,,0.05,weatherlink.com 1.10,2013-01-15 06:35:00,
2013-01-15 01:50:00,54.7,54.0,30.08,ESE,113,0.0,0.0,96,0.05,,,0.07,weatherlink.com 1.10,2013-01-15 06:50:00,
2013-01-15 02:05:00,54.7,54.0,30.07,ESE,113,0.0,0.0,97,0.06,,,0.09,weatherlink.com 1.10,2013-01-15 07:05:00,
2013-01-15 02:20:00,54.7,54.0,30.08,North,358,0.0,2.0,97,0.04,,,0.09,weatherlink.com 1.10,2013-01-15 07:20:00,
2013-01-15 02:35:00,54.7,54.0,30.08,NNW,330,0.0,2.0,97,0.05,,,0.10,weatherlink.com 1.10,2013-01-15 07:35:00,
2013-01-15 02:50:00,54.7,54.0,30.08,NNW,330,0.0,1.0,97,0.05,,,0.12,weatherlink.com 1.10,2013-01-15 07:50:00,
2013-01-15 03:05:00,54.7,54.0,30.08,NNW,330,0.0,0.0,97,0.05,,,0.14,weatherlink.com 1.10,2013-01-15 08:05:00,
2013-01-15 03:20:00,54.6,54.0,30.07,NNW,330,0.0,0.0,97,0.06,,,0.15,weatherlink.com 1.10,2013-01-15 08:20:00,
2013-01-15 03:35:00,54.7,54.0,30.06,NNW,330,0.0,0.0,97,0.05,,,0.15,weatherlink.com 1.10,2013-01-15 08:35:00,
2013-01-15 03:50:00,54.6,54.0,30.06,NNW,330,0.0,1.0,97,0.04,,,0.16,weatherlink.com 1.10,2013-01-15 08:50:00,
2013-01-15 04:05:00,54.6,54.0,30.06,NNW,330,0.0,0.0,97,0.02,,,0.16,weatherlink.com 1.10,2013-01-15 09:05:00,
2013-01-15 04:20:00,54.7,54.0,30.05,NNW,330,0.0,1.0,97,0.01,,,0.16,weatherlink.com 1.10,2013-01-15 09:20:00,
2013-01-15 04:35:00,54.7,54.0,30.05,NNW,330,1.0,1.0,97,0.02,,,0.17,weatherlink.com 1.10,2013-01-15 09:35:00,
2013-01-15 04:50:00,54.7,54.0,30.04,NNW,330,0.0,1.0,97,0.03,,,0.19,weatherlink.com 1.10,2013-01-15 09:50:00,
2013-01-15 05:05:00,54.7,54.0,30.05,NNW,330,0.0,1.0,97,0.04,,,0.20,weatherlink.com 1.10,2013-01-15 10:05:00,
2013-01-15 05:20:00,54.7,54.0,30.05,SW,231,0.0,1.0,98,0.06,,,0.22,weatherlink.com 1.10,2013-01-15 10:20:00,
2013-01-15 05:35:00,54.8,54.0,30.04,North,1,0.0,0.0,98,0.06,,,0.23,weatherlink.com 1.10,2013-01-15 10:35:00,
2013-01-15 05:50:00,54.8,54.0,30.05,North,1,0.0,1.0,98,0.06,,,0.25,weatherlink.com 1.10,2013-01-15 10:50:00,
2013-01-15 06:05:00,54.9,54.0,30.06,North,1,0.0,1.0,98,0.06,,,0.26,weatherlink.com 1.10,2013-01-15 11:05:00,
2013-01-15 06:20:00,54.8,54.0,30.06,North,356,1.0,1.0,98,0.06,,,0.28,weatherlink.com 1.10,2013-01-15 11:20:00,
2013-01-15 06:35:00,54.9,54.0,30.07,SW,234,1.0,2.0,98,0.06,,,0.29,weatherlink.com 1.10,2013-01-15 11:35:00,
2013-01-15 06:50:00,55.0,55.0,30.07,SW,232,0.0,1.0,98,0.05,,,0.30,weatherlink.com 1.10,2013-01-15 11:50:00,
2013-01-15 07:05:00,55.0,55.0,30.08,SW,231,0.0,0.0,98,0.05,,,0.31,weatherlink.com 1.10,2013-01-15 12:05:00,
2013-01-15 07:20:00,55.1,55.0,30.08,SW,231,0.0,0.0,98,0.04,,,0.32,weatherlink.com 1.10,2013-01-15 12:20:00,
2013-01-15 07:35:00,55.1,55.0,30.09,SW,231,0.0,0.0,98,0.03,,,0.32,weatherlink.com 1.10,2013-01-15 12:35:00,
2013-01-15 07:50:00,55.1,55.0,30.10,NNE,16,0.0,0.0,98,0.06,,,0.36,weatherlink.com 1.10,2013-01-15 12:50:00,
2013-01-15 08:06:00,55.0,55.0,30.10,NNE,16,0.0,0.0,98,0.07,,,0.38,weatherlink.com 1.10,2013-01-15 13:06:00,
2013-01-15 08:21:00,54.9,54.0,30.11,NNE,16,0.0,1.0,98,0.09,,,0.41,weatherlink.com 1.10,2013-01-15 13:21:00,
2013-01-15 08:36:00,54.7,54.0,30.11,NNE,16,0.0,2.0,98,0.13,,,0.45,weatherlink.com 1.10,2013-01-15 13:36:00,
2013-01-15 08:51:00,54.7,54.0,30.11,NNE,17,0.0,1.0,98,0.10,,,0.46,weatherlink.com 1.10,2013-01-15 13:51:00,
2013-01-15 09:06:00,54.7,54.0,30.11,NNE,16,0.0,1.0,98,0.10,,,0.48,weatherlink.com 1.10,2013-01-15 14:06:00,
2013-01-15 09:21:00,54.5,54.0,30.11,NNW,337,0.0,1.0,98,0.08,,,0.49,weatherlink.com 1.10,2013-01-15 14:21:00,
2013-01-15 09:36:00,54.3,54.0,30.11,NW,308,0.0,1.0,98,0.04,,,0.49,weatherlink.com 1.10,2013-01-15 14:36:00,
2013-01-15 09:51:00,54.0,53.0,30.11,East,82,0.0,4.0,97,0.04,,,0.50,weatherlink.com 1.10,2013-01-15 14:51:00,
2013-01-15 10:06:00,53.6,53.0,30.11,WNW,291,0.0,1.0,97,0.02,,,0.50,weatherlink.com 1.10,2013-01-15 15:06:00,
2013-01-15 10:21:00,53.2,52.0,30.11,NW,314,1.0,2.0,97,0.03,,,0.52,weatherlink.com 1.10,2013-01-15 15:21:00,
2013-01-15 10:36:00,52.9,52.0,30.11,NNW,345,0.0,2.0,97,0.05,,,0.54,weatherlink.com 1.10,2013-01-15 15:36:00,
2013-01-15 10:51:00,52.8,52.0,30.11,NW,325,0.0,2.0,97,0.05,,,0.55,weatherlink.com 1.10,2013-01-15 15:51:00,
2013-01-15 11:06:00,52.8,52.0,30.10,North,359,0.0,4.0,97,0.07,,,0.57,weatherlink.com 1.10,2013-01-15 16:06:00,
2013-01-15 11:21:00,52.7,52.0,30.10,NNW,329,1.0,3.0,97,0.07,,,0.59,weatherlink.com 1.10,2013-01-15 16:21:00,
2013-01-15 11:36:00,52.8,52.0,30.10,NNW,327,0.0,1.0,97,0.06,,,0.60,weatherlink.com 1.10,2013-01-15 16:36:00,
2013-01-15 11:51:00,52.6,52.0,30.09,WNW,287,0.0,3.0,97,0.05,,,0.61,weatherlink.com 1.10,2013-01-15 16:51:00,
2013-01-15 12:06:00,52.1,51.0,30.09,NW,316,0.0,2.0,97,0.05,,,0.62,weatherlink.com 1.10,2013-01-15 17:06:00,
2013-01-15 12:21:00,51.7,51.0,30.08,North,11,1.0,2.0,97,0.03,,,0.62,weatherlink.com 1.10,2013-01-15 17:21:00,
2013-01-15 12:36:00,51.9,51.0,30.07,NNW,347,0.0,1.0,97,0.03,,,0.63,weatherlink.com 1.10,2013-01-15 17:36:00,
2013-01-15 12:51:00,51.8,51.0,30.07,North,360,0.0,1.0,97,0.03,,,0.64,weatherlink.com 1.10,2013-01-15 17:51:00,
2013-01-15 13:06:00,52.0,51.0,30.06,NW,320,0.0,1.0,97,0.03,,,0.65,weatherlink.com 1.10,2013-01-15 18:06:00,
2013-01-15 13:21:00,52.2,51.0,30.06,WNW,282,0.0,1.0,97,0.07,,,0.69,weatherlink.com 1.10,2013-01-15 18:21:00,
2013-01-15 13:36:00,52.0,51.0,30.05,NW,314,0.0,2.0,97,0.07,,,0.70,weatherlink.com 1.10,2013-01-15 18:36:00,
2013-01-15 13:51:00,52.0,51.0,30.04,WNW,298,0.0,1.0,97,0.09,,,0.73,weatherlink.com 1.10,2013-01-15 18:51:00,
2013-01-15 14:06:00,51.7,51.0,30.05,NNW,330,0.0,1.0,97,0.09,,,0.75,weatherlink.com 1.10,2013-01-15 19:06:00,
2013-01-15 14:21:00,51.4,51.0,30.04,NNE,20,0.0,2.0,97,0.09,,,0.78,weatherlink.com 1.10,2013-01-15 19:21:00,
2013-01-15 14:36:00,51.1,50.0,30.04,NNW,338,1.0,2.0,97,0.09,,,0.80,weatherlink.com 1.10,2013-01-15 19:36:00,
2013-01-15 14:51:00,50.9,50.0,30.03,NW,307,0.0,1.0,97,0.10,,,0.83,weatherlink.com 1.10,2013-01-15 19:51:00,
2013-01-15 15:06:00,50.9,50.0,30.03,NNW,337,1.0,2.0,97,0.11,,,0.86,weatherlink.com 1.10,2013-01-15 20:06:00,
2013-01-15 15:21:00,51.2,50.0,30.03,NNE,13,0.0,2.0,97,0.10,,,0.88,weatherlink.com 1.10,2013-01-15 20:21:00,
2013-01-15 15:36:00,50.8,50.0,30.03,North,359,1.0,1.0,97,0.11,,,0.91,weatherlink.com 1.10,2013-01-15 20:36:00,
2013-01-15 15:51:00,50.5,50.0,30.03,WNW,302,0.0,1.0,97,0.09,,,0.92,weatherlink.com 1.10,2013-01-15 20:51:00,
2013-01-15 16:06:00,50.3,50.0,30.04,NW,304,0.0,1.0,97,0.07,,,0.94,weatherlink.com 1.10,2013-01-15 21:06:00,
2013-01-15 16:21:00,49.9,49.0,30.04,West,276,1.0,1.0,97,0.08,,,0.97,weatherlink.com 1.10,2013-01-15 21:21:00,
2013-01-15 16:36:00,49.6,49.0,30.05,WSW,239,0.0,1.0,97,0.11,,,1.02,weatherlink.com 1.10,2013-01-15 21:36:00,
2013-01-15 16:51:00,49.5,49.0,30.05,North,356,0.0,1.0,97,0.12,,,1.04,weatherlink.com 1.10,2013-01-15 21:51:00,
2013-01-15 17:07:00,49.5,49.0,30.05,NW,307,1.0,2.0,97,0.11,,,1.05,weatherlink.com 1.10,2013-01-15 22:07:00,
2013-01-15 17:21:00,49.2,48.0,30.05,NW,308,0.0,1.0,97,0.08,,,1.06,weatherlink.com 1.10,2013-01-15 22:21:00,
2013-01-15 17:36:00,49.1,48.0,30.05,WNW,284,0.0,0.0,97,0.04,,,1.07,weatherlink.com 1.10,2013-01-15 22:36:00,
2013-01-15 17:51:00,49.1,48.0,30.06,WSW,240,0.0,1.0,97,0.03,,,1.07,weatherlink.com 1.10,2013-01-15 22:51:00,
2013-01-15 18:06:00,48.9,48.0,30.06,WSW,245,1.0,2.0,97,0.02,,,1.07,weatherlink.com 1.10,2013-01-15 23:06:00,
2013-01-15 18:21:00,48.6,48.0,30.06,NNE,17,0.0,2.0,97,0.01,,,1.07,weatherlink.com 1.10,2013-01-15 23:21:00,
2013-01-15 18:36:00,48.4,48.0,30.07,NNE,16,0.0,1.0,97,0.06,,,1.13,weatherlink.com 1.10,2013-01-15 23:36:00,
2013-01-15 18:51:00,48.4,48.0,30.07,NNE,16,0.0,1.0,97,0.08,,,1.15,weatherlink.com 1.10,2013-01-15 23:51:00,
2013-01-15 19:06:00,48.2,47.0,30.07,NNE,16,0.0,1.0,97,0.10,,,1.17,weatherlink.com 1.10,2013-01-16 00:06:00,
2013-01-15 19:21:00,48.0,47.0,30.07,NNW,335,0.0,2.0,97,0.11,,,1.19,weatherlink.com 1.10,2013-01-16 00:21:00,
2013-01-15 19:36:00,47.8,47.0,30.06,NNW,335,0.0,1.0,97,0.08,,,1.21,weatherlink.com 1.10,2013-01-16 00:36:00,
2013-01-15 19:51:00,47.6,47.0,30.05,WNW,302,0.0,2.0,97,0.07,,,1.22,weatherlink.com 1.10,2013-01-16 00:51:00,
2013-01-15 20:06:00,47.6,47.0,30.05,WNW,302,1.0,2.0,97,0.05,,,1.22,weatherlink.com 1.10,2013-01-16 01:06:00,
2013-01-15 20:21:00,47.5,47.0,30.04,WNW,295,0.0,1.0,97,0.03,,,1.22,weatherlink.com 1.10,2013-01-16 01:21:00,
2013-01-15 20:36:00,47.2,46.0,30.05,WNW,295,0.0,1.0,97,0.01,,,1.22,weatherlink.com 1.10,2013-01-16 01:36:00,
2013-01-15 20:51:00,47.0,46.0,30.04,SW,236,1.0,2.0,97,0.00,,,1.22,weatherlink.com 1.10,2013-01-16 01:51:00,
2013-01-15 21:06:00,46.9,46.0,30.04,WSW,249,0.0,1.0,97,0.01,,,1.23,weatherlink.com 1.10,2013-01-16 02:06:00,
2013-01-15 21:21:00,46.8,46.0,30.03,WSW,250,0.0,0.0,97,0.01,,,1.23,weatherlink.com 1.10,2013-01-16 02:21:00,
2013-01-15 21:36:00,46.7,46.0,30.03,West,266,0.0,0.0,97,0.02,,,1.24,weatherlink.com 1.10,2013-01-16 02:36:00,
2013-01-15 21:51:00,46.5,46.0,30.03,West,274,0.0,1.0,97,0.03,,,1.25,weatherlink.com 1.10,2013-01-16 02:51:00,
2013-01-15 22:07:00,46.5,46.0,30.04,West,273,0.0,1.0,97,0.04,,,1.27,weatherlink.com 1.10,2013-01-16 03:07:00,
2013-01-15 22:22:00,46.3,46.0,30.04,West,271,1.0,1.0,97,0.07,,,1.30,weatherlink.com 1.10,2013-01-16 03:22:00,
2013-01-15 22:37:00,46.2,45.0,30.04,SSW,200,0.0,1.0,97,0.06,,,1.30,weatherlink.com 1.10,2013-01-16 03:37:00,
2013-01-15 22:52:00,46.1,45.0,30.04,SSW,200,0.0,1.0,97,0.06,,,1.31,weatherlink.com 1.10,2013-01-16 03:52:00,
2013-01-15 23:07:00,46.0,45.0,30.04,SSW,200,0.0,1.0,97,0.05,,,1.32,weatherlink.com 1.10,2013-01-16 04:07:00,
2013-01-15 23:23:00,45.9,45.0,30.03,SW,221,0.0,1.0,97,0.08,,,1.38,weatherlink.com 1.10,2013-01-16 04:23:00,
2013-01-15 23:36:00,45.7,45.0,30.03,SW,221,0.0,0.0,97,0.12,,,1.42,weatherlink.com 1.10,2013-01-16 04:36:00,
2013-01-15 23:51:00,45.8,45.0,30.03,SW,222,0.0,1.0,97,0.13,,,1.44,weatherlink.com 1.10,2013-01-16 04:51:00,